sensor_id;sensor_type;location;lat;lon;timestamp;P1;durP1;ratioP1;P2;durP2;ratioP2
21326;SDS011;10822;51.532;6.770;2023-02-24T00:01:11;19.23;;;3.85;;
21326;SDS011;10822;51.532;6.770;2023-02-24T00:03:39;12.82;;;4.13;;
21326;SDS011;10822;51.532;6.770;2023-02-24T00:06:08;24.05;;;4.63;;
21326;SDS011;10822;51.532;6.770;2023-02-24T00:08:36;12.77;;;3.40;;
21326;SDS011;10822;51.532;6.770;2023-02-24T00:11:07;16.10;;;3.40;;
21326;SDS011;10822;51.532;6.770;2023-02-24T00:13:33;15.38;;;2.88;;
21326;SDS011;10822;51.532;6.770;2023-02-24T00:16:00;16.98;;;3.42;;
21326;SDS011;10822;51.532;6.770;2023-02-24T00:18:30;19.15;;;3.40;;
21326;SDS011;10822;51.532;6.770;2023-02-24T00:21:01;11.45;;;2.92;;
21326;SDS011;10822;51.532;6.770;2023-02-24T00:23:28;16.42;;;3.33;;
21326;SDS011;10822;51.532;6.770;2023-02-24T00:25:57;14.38;;;2.85;;
21326;SDS011;10822;51.532;6.770;2023-02-24T00:28:24;17.80;;;3.25;;
21326;SDS011;10822;51.532;6.770;2023-02-24T00:30:50;13.10;;;2.85;;
21326;SDS011;10822;51.532;6.770;2023-02-24T00:33:16;12.95;;;3.55;;
21326;SDS011;10822;51.532;6.770;2023-02-24T00:35:46;13.00;;;4.03;;
21326;SDS011;10822;51.532;6.770;2023-02-24T00:38:13;17.35;;;3.67;;
21326;SDS011;10822;51.532;6.770;2023-02-24T00:40:39;14.23;;;3.65;;
21326;SDS011;10822;51.532;6.770;2023-02-24T00:43:09;15.35;;;3.15;;
21326;SDS011;10822;51.532;6.770;2023-02-24T00:45:35;14.57;;;3.45;;
21326;SDS011;10822;51.532;6.770;2023-02-24T00:48:03;12.75;;;2.72;;
21326;SDS011;10822;51.532;6.770;2023-02-24T00:50:29;12.27;;;2.80;;
21326;SDS011;10822;51.532;6.770;2023-02-24T00:52:55;16.35;;;3.30;;
21326;SDS011;10822;51.532;6.770;2023-02-24T00:55:21;11.98;;;3.08;;
21326;SDS011;10822;51.532;6.770;2023-02-24T00:57:47;16.48;;;2.78;;
21326;SDS011;10822;51.532;6.770;2023-02-24T01:00:17;15.90;;;3.10;;
21326;SDS011;10822;51.532;6.770;2023-02-24T01:02:47;9.82;;;2.25;;
21326;SDS011;10822;51.532;6.770;2023-02-24T01:05:13;13.45;;;3.08;;
21326;SDS011;10822;51.532;6.770;2023-02-24T01:07:39;9.77;;;2.63;;
21326;SDS011;10822;51.532;6.770;2023-02-24T01:10:05;13.60;;;3.05;;
21326;SDS011;10822;51.532;6.770;2023-02-24T01:12:33;14.32;;;3.42;;
21326;SDS011;10822;51.532;6.770;2023-02-24T01:15:03;13.43;;;3.17;;
21326;SDS011;10822;51.532;6.770;2023-02-24T01:17:29;27.00;;;3.85;;
21326;SDS011;10822;51.532;6.770;2023-02-24T01:19:55;15.30;;;3.63;;
21326;SDS011;10822;51.532;6.770;2023-02-24T01:22:25;10.98;;;2.90;;
21326;SDS011;10822;51.532;6.770;2023-02-24T01:24:51;12.43;;;3.97;;
21326;SDS011;10822;51.532;6.770;2023-02-24T01:27:17;19.85;;;3.28;;
21326;SDS011;10822;51.532;6.770;2023-02-24T01:29:43;19.35;;;4.38;;
21326;SDS011;10822;51.532;6.770;2023-02-24T01:32:17;21.55;;;4.00;;
21326;SDS011;10822;51.532;6.770;2023-02-24T01:34:43;16.63;;;3.83;;
21326;SDS011;10822;51.532;6.770;2023-02-24T01:37:10;16.30;;;4.40;;
21326;SDS011;10822;51.532;6.770;2023-02-24T01:39:40;18.75;;;4.25;;
21326;SDS011;10822;51.532;6.770;2023-02-24T01:42:06;14.90;;;3.40;;
21326;SDS011;10822;51.532;6.770;2023-02-24T01:46:58;18.38;;;3.13;;
21326;SDS011;10822;51.532;6.770;2023-02-24T01:49:32;10.77;;;3.13;;
21326;SDS011;10822;51.532;6.770;2023-02-24T01:52:00;18.13;;;3.65;;
21326;SDS011;10822;51.532;6.770;2023-02-24T01:54:27;14.93;;;3.20;;
21326;SDS011;10822;51.532;6.770;2023-02-24T01:56:55;20.38;;;4.63;;
21326;SDS011;10822;51.532;6.770;2023-02-24T01:59:23;17.35;;;3.45;;
21326;SDS011;10822;51.532;6.770;2023-02-24T02:01:51;15.82;;;3.88;;
21326;SDS011;10822;51.532;6.770;2023-02-24T02:06:45;12.63;;;3.10;;
21326;SDS011;10822;51.532;6.770;2023-02-24T02:09:12;15.07;;;3.58;;
21326;SDS011;10822;51.532;6.770;2023-02-24T02:11:39;14.90;;;3.40;;
21326;SDS011;10822;51.532;6.770;2023-02-24T02:14:05;15.25;;;3.60;;
21326;SDS011;10822;51.532;6.770;2023-02-24T02:16:34;15.40;;;4.35;;
21326;SDS011;10822;51.532;6.770;2023-02-24T02:24:40;12.68;;;3.65;;
21326;SDS011;10822;51.532;6.770;2023-02-24T02:45:05;11.93;;;4.10;;
21326;SDS011;10822;51.532;6.770;2023-02-24T02:55:11;20.60;;;5.63;;
21326;SDS011;10822;51.532;6.770;2023-02-24T02:57:40;21.35;;;6.07;;
21326;SDS011;10822;51.532;6.770;2023-02-24T03:00:12;17.23;;;5.45;;
21326;SDS011;10822;51.532;6.770;2023-02-24T03:02:43;21.52;;;6.50;;
21326;SDS011;10822;51.532;6.770;2023-02-24T03:05:12;18.80;;;6.13;;
21326;SDS011;10822;51.532;6.770;2023-02-24T03:07:42;24.00;;;5.78;;
21326;SDS011;10822;51.532;6.770;2023-02-24T03:10:10;18.27;;;6.22;;
21326;SDS011;10822;51.532;6.770;2023-02-24T03:12:44;17.90;;;6.07;;
21326;SDS011;10822;51.532;6.770;2023-02-24T03:15:12;19.45;;;5.63;;
21326;SDS011;10822;51.532;6.770;2023-02-24T03:17:39;18.15;;;5.20;;
21326;SDS011;10822;51.532;6.770;2023-02-24T03:22:45;30.48;;;7.45;;
21326;SDS011;10822;51.532;6.770;2023-02-24T03:25:15;17.02;;;5.32;;
21326;SDS011;10822;51.532;6.770;2023-02-24T03:27:48;15.10;;;3.78;;
21326;SDS011;10822;51.532;6.770;2023-02-24T03:30:19;14.10;;;4.95;;
21326;SDS011;10822;51.532;6.770;2023-02-24T03:32:48;13.15;;;4.32;;
21326;SDS011;10822;51.532;6.770;2023-02-24T03:35:27;18.30;;;4.15;;
21326;SDS011;10822;51.532;6.770;2023-02-24T03:37:54;14.00;;;4.32;;
21326;SDS011;10822;51.532;6.770;2023-02-24T03:40:21;11.60;;;3.50;;
21326;SDS011;10822;51.532;6.770;2023-02-24T03:42:56;14.25;;;4.03;;
21326;SDS011;10822;51.532;6.770;2023-02-24T03:45:22;16.15;;;5.03;;
21326;SDS011;10822;51.532;6.770;2023-02-24T03:47:51;16.45;;;6.05;;
21326;SDS011;10822;51.532;6.770;2023-02-24T03:50:20;19.65;;;7.22;;
21326;SDS011;10822;51.532;6.770;2023-02-24T03:53:29;17.77;;;7.78;;
21326;SDS011;10822;51.532;6.770;2023-02-24T04:06:19;12.50;;;4.13;;
21326;SDS011;10822;51.532;6.770;2023-02-24T04:11:16;19.33;;;4.57;;
21326;SDS011;10822;51.532;6.770;2023-02-24T04:13:47;11.63;;;3.70;;
21326;SDS011;10822;51.532;6.770;2023-02-24T04:19:05;17.50;;;3.88;;
21326;SDS011;10822;51.532;6.770;2023-02-24T04:21:32;23.90;;;4.50;;
21326;SDS011;10822;51.532;6.770;2023-02-24T04:23:59;23.55;;;3.85;;
21326;SDS011;10822;51.532;6.770;2023-02-24T04:26:30;16.00;;;4.10;;
21326;SDS011;10822;51.532;6.770;2023-02-24T04:28:56;16.42;;;3.45;;
21326;SDS011;10822;51.532;6.770;2023-02-24T04:31:23;15.95;;;5.55;;
21326;SDS011;10822;51.532;6.770;2023-02-24T04:33:50;18.48;;;5.53;;
21326;SDS011;10822;51.532;6.770;2023-02-24T04:36:17;15.93;;;4.72;;
21326;SDS011;10822;51.532;6.770;2023-02-24T04:38:44;21.30;;;6.47;;
21326;SDS011;10822;51.532;6.770;2023-02-24T04:41:10;19.45;;;5.53;;
21326;SDS011;10822;51.532;6.770;2023-02-24T04:43:36;15.55;;;4.38;;
21326;SDS011;10822;51.532;6.770;2023-02-24T04:46:02;23.33;;;5.05;;
21326;SDS011;10822;51.532;6.770;2023-02-24T04:48:32;16.05;;;3.85;;
21326;SDS011;10822;51.532;6.770;2023-02-24T04:50:59;12.15;;;2.95;;
21326;SDS011;10822;51.532;6.770;2023-02-24T04:53:26;11.10;;;3.25;;
21326;SDS011;10822;51.532;6.770;2023-02-24T04:55:53;14.80;;;3.28;;
21326;SDS011;10822;51.532;6.770;2023-02-24T04:58:20;12.60;;;3.95;;
21326;SDS011;10822;51.532;6.770;2023-02-24T05:00:47;11.70;;;3.75;;
21326;SDS011;10822;51.532;6.770;2023-02-24T05:03:16;17.02;;;4.05;;
21326;SDS011;10822;51.532;6.770;2023-02-24T05:05:50;17.55;;;4.65;;
21326;SDS011;10822;51.532;6.770;2023-02-24T05:08:17;15.68;;;4.40;;
21326;SDS011;10822;51.532;6.770;2023-02-24T05:10:44;20.55;;;4.57;;
21326;SDS011;10822;51.532;6.770;2023-02-24T05:13:20;16.83;;;4.28;;
21326;SDS011;10822;51.532;6.770;2023-02-24T05:15:50;10.07;;;3.30;;
21326;SDS011;10822;51.532;6.770;2023-02-24T05:18:16;12.07;;;3.38;;
21326;SDS011;10822;51.532;6.770;2023-02-24T05:20:44;16.40;;;3.85;;
21326;SDS011;10822;51.532;6.770;2023-02-24T05:23:30;10.98;;;3.08;;
21326;SDS011;10822;51.532;6.770;2023-02-24T05:26:00;12.60;;;3.60;;
21326;SDS011;10822;51.532;6.770;2023-02-24T05:28:26;13.73;;;4.20;;
21326;SDS011;10822;51.532;6.770;2023-02-24T05:31:02;12.00;;;3.83;;
21326;SDS011;10822;51.532;6.770;2023-02-24T05:33:30;12.98;;;3.92;;
21326;SDS011;10822;51.532;6.770;2023-02-24T05:35:56;14.10;;;3.80;;
21326;SDS011;10822;51.532;6.770;2023-02-24T05:38:27;12.60;;;3.70;;
21326;SDS011;10822;51.532;6.770;2023-02-24T05:40:53;13.88;;;4.15;;
21326;SDS011;10822;51.532;6.770;2023-02-24T05:43:28;14.15;;;3.92;;
21326;SDS011;10822;51.532;6.770;2023-02-24T05:45:58;16.83;;;4.18;;
21326;SDS011;10822;51.532;6.770;2023-02-24T05:48:24;14.75;;;4.03;;
21326;SDS011;10822;51.532;6.770;2023-02-24T05:50:52;16.52;;;4.05;;
21326;SDS011;10822;51.532;6.770;2023-02-24T05:53:21;16.58;;;4.13;;
21326;SDS011;10822;51.532;6.770;2023-02-24T05:55:47;13.98;;;4.10;;
21326;SDS011;10822;51.532;6.770;2023-02-24T05:58:13;13.60;;;4.18;;
21326;SDS011;10822;51.532;6.770;2023-02-24T06:00:40;15.77;;;4.00;;
21326;SDS011;10822;51.532;6.770;2023-02-24T06:03:10;15.98;;;3.70;;
21326;SDS011;10822;51.532;6.770;2023-02-24T06:05:41;11.90;;;3.10;;
21326;SDS011;10822;51.532;6.770;2023-02-24T06:08:07;14.68;;;3.28;;
21326;SDS011;10822;51.532;6.770;2023-02-24T06:10:36;13.05;;;2.70;;
21326;SDS011;10822;51.532;6.770;2023-02-24T06:13:04;9.75;;;2.45;;
21326;SDS011;10822;51.532;6.770;2023-02-24T06:15:30;16.55;;;2.85;;
21326;SDS011;10822;51.532;6.770;2023-02-24T06:17:57;7.57;;;2.72;;
21326;SDS011;10822;51.532;6.770;2023-02-24T06:20:25;10.25;;;3.08;;
21326;SDS011;10822;51.532;6.770;2023-02-24T06:22:54;10.73;;;3.15;;
21326;SDS011;10822;51.532;6.770;2023-02-24T06:25:24;10.07;;;3.03;;
21326;SDS011;10822;51.532;6.770;2023-02-24T06:27:51;14.35;;;2.97;;
21326;SDS011;10822;51.532;6.770;2023-02-24T06:30:18;13.30;;;3.70;;
21326;SDS011;10822;51.532;6.770;2023-02-24T06:32:46;10.52;;;2.97;;
21326;SDS011;10822;51.532;6.770;2023-02-24T06:35:12;12.60;;;2.92;;
21326;SDS011;10822;51.532;6.770;2023-02-24T06:37:38;9.60;;;2.97;;
21326;SDS011;10822;51.532;6.770;2023-02-24T06:40:05;11.63;;;3.15;;
21326;SDS011;10822;51.532;6.770;2023-02-24T06:42:42;8.68;;;2.92;;
21326;SDS011;10822;51.532;6.770;2023-02-24T06:45:09;9.70;;;3.53;;
21326;SDS011;10822;51.532;6.770;2023-02-24T06:47:35;9.70;;;2.88;;
21326;SDS011;10822;51.532;6.770;2023-02-24T06:50:02;12.05;;;3.65;;
21326;SDS011;10822;51.532;6.770;2023-02-24T06:52:30;18.48;;;3.53;;
21326;SDS011;10822;51.532;6.770;2023-02-24T06:54:56;11.65;;;3.30;;
21326;SDS011;10822;51.532;6.770;2023-02-24T06:57:22;13.05;;;3.35;;
21326;SDS011;10822;51.532;6.770;2023-02-24T06:59:48;16.13;;;4.10;;
21326;SDS011;10822;51.532;6.770;2023-02-24T07:02:15;13.35;;;3.63;;
21326;SDS011;10822;51.532;6.770;2023-02-24T07:04:41;10.15;;;3.80;;
21326;SDS011;10822;51.532;6.770;2023-02-24T07:07:07;9.52;;;3.67;;
21326;SDS011;10822;51.532;6.770;2023-02-24T07:09:34;10.18;;;3.25;;
21326;SDS011;10822;51.532;6.770;2023-02-24T07:12:01;10.30;;;3.08;;
21326;SDS011;10822;51.532;6.770;2023-02-24T07:14:28;11.30;;;3.50;;
21326;SDS011;10822;51.532;6.770;2023-02-24T07:16:55;13.95;;;3.35;;
21326;SDS011;10822;51.532;6.770;2023-02-24T07:19:26;7.85;;;3.10;;
21326;SDS011;10822;51.532;6.770;2023-02-24T07:21:57;11.20;;;3.40;;
21326;SDS011;10822;51.532;6.770;2023-02-24T07:24:29;17.48;;;6.15;;
21326;SDS011;10822;51.532;6.770;2023-02-24T07:27:04;10.57;;;4.13;;
21326;SDS011;10822;51.532;6.770;2023-02-24T07:29:31;7.45;;;3.10;;
21326;SDS011;10822;51.532;6.770;2023-02-24T07:32:01;10.60;;;3.92;;
21326;SDS011;10822;51.532;6.770;2023-02-24T07:34:29;10.57;;;4.70;;
21326;SDS011;10822;51.532;6.770;2023-02-24T07:36:56;8.38;;;3.03;;
21326;SDS011;10822;51.532;6.770;2023-02-24T07:39:22;7.18;;;2.70;;
21326;SDS011;10822;51.532;6.770;2023-02-24T07:41:48;11.65;;;3.33;;
21326;SDS011;10822;51.532;6.770;2023-02-24T07:44:16;14.98;;;3.08;;
21326;SDS011;10822;51.532;6.770;2023-02-24T07:46:43;8.38;;;2.92;;
21326;SDS011;10822;51.532;6.770;2023-02-24T07:49:13;11.38;;;2.80;;
21326;SDS011;10822;51.532;6.770;2023-02-24T07:51:39;7.05;;;2.78;;
21326;SDS011;10822;51.532;6.770;2023-02-24T07:54:06;7.50;;;2.75;;
21326;SDS011;10822;51.532;6.770;2023-02-24T07:56:33;12.18;;;3.30;;
21326;SDS011;10822;51.532;6.770;2023-02-24T07:59:00;8.18;;;2.50;;
21326;SDS011;10822;51.532;6.770;2023-02-24T08:01:31;10.05;;;2.58;;
21326;SDS011;10822;51.532;6.770;2023-02-24T08:04:03;11.20;;;3.30;;
21326;SDS011;10822;51.532;6.770;2023-02-24T08:06:33;15.10;;;4.03;;
21326;SDS011;10822;51.532;6.770;2023-02-24T08:09:03;14.95;;;3.50;;
21326;SDS011;10822;51.532;6.770;2023-02-24T08:11:46;6.97;;;2.50;;
21326;SDS011;10822;51.532;6.770;2023-02-24T08:14:16;11.68;;;2.35;;
21326;SDS011;10822;51.532;6.770;2023-02-24T08:16:43;7.40;;;2.13;;
21326;SDS011;10822;51.532;6.770;2023-02-24T08:19:13;10.23;;;2.40;;
21326;SDS011;10822;51.532;6.770;2023-02-24T08:21:44;12.18;;;2.53;;
21326;SDS011;10822;51.532;6.770;2023-02-24T08:24:23;8.88;;;2.20;;
21326;SDS011;10822;51.532;6.770;2023-02-24T08:26:54;8.75;;;2.10;;
21326;SDS011;10822;51.532;6.770;2023-02-24T08:29:36;10.73;;;2.65;;
21326;SDS011;10822;51.532;6.770;2023-02-24T08:32:25;13.82;;;2.50;;
21326;SDS011;10822;51.532;6.770;2023-02-24T08:34:57;8.43;;;2.40;;
21326;SDS011;10822;51.532;6.770;2023-02-24T08:37:27;7.75;;;2.40;;
21326;SDS011;10822;51.532;6.770;2023-02-24T08:39:57;9.68;;;2.63;;
21326;SDS011;10822;51.532;6.770;2023-02-24T08:42:23;9.38;;;3.60;;
21326;SDS011;10822;51.532;6.770;2023-02-24T08:44:58;8.45;;;2.35;;
21326;SDS011;10822;51.532;6.770;2023-02-24T08:47:25;6.72;;;2.78;;
21326;SDS011;10822;51.532;6.770;2023-02-24T08:49:55;11.25;;;1.98;;
21326;SDS011;10822;51.532;6.770;2023-02-24T08:52:26;7.90;;;2.30;;
21326;SDS011;10822;51.532;6.770;2023-02-24T08:54:52;9.15;;;2.50;;
21326;SDS011;10822;51.532;6.770;2023-02-24T08:57:23;8.02;;;2.20;;
21326;SDS011;10822;51.532;6.770;2023-02-24T08:59:50;12.73;;;2.13;;
21326;SDS011;10822;51.532;6.770;2023-02-24T09:02:22;8.93;;;2.50;;
21326;SDS011;10822;51.532;6.770;2023-02-24T09:04:55;10.38;;;2.40;;
21326;SDS011;10822;51.532;6.770;2023-02-24T09:07:25;10.25;;;2.50;;
21326;SDS011;10822;51.532;6.770;2023-02-24T09:09:52;10.48;;;2.20;;
21326;SDS011;10822;51.532;6.770;2023-02-24T09:12:20;11.07;;;2.13;;
21326;SDS011;10822;51.532;6.770;2023-02-24T09:14:49;7.47;;;2.35;;
21326;SDS011;10822;51.532;6.770;2023-02-24T09:17:19;12.27;;;2.40;;
21326;SDS011;10822;51.532;6.770;2023-02-24T09:19:50;8.95;;;2.13;;
21326;SDS011;10822;51.532;6.770;2023-02-24T09:22:26;7.18;;;2.65;;
21326;SDS011;10822;51.532;6.770;2023-02-24T09:24:59;11.00;;;2.38;;
21326;SDS011;10822;51.532;6.770;2023-02-24T09:28:04;8.05;;;2.00;;
21326;SDS011;10822;51.532;6.770;2023-02-24T09:30:43;15.52;;;5.43;;
21326;SDS011;10822;51.532;6.770;2023-02-24T09:33:18;7.25;;;2.03;;
21326;SDS011;10822;51.532;6.770;2023-02-24T09:38:11;6.60;;;2.05;;
21326;SDS011;10822;51.532;6.770;2023-02-24T09:40:41;9.05;;;3.10;;
21326;SDS011;10822;51.532;6.770;2023-02-24T09:43:24;11.43;;;2.72;;
21326;SDS011;10822;51.532;6.770;2023-02-24T09:45:53;15.23;;;2.92;;
21326;SDS011;10822;51.532;6.770;2023-02-24T09:48:23;12.65;;;2.58;;
21326;SDS011;10822;51.532;6.770;2023-02-24T09:50:51;9.70;;;2.60;;
21326;SDS011;10822;51.532;6.770;2023-02-24T09:53:29;13.55;;;3.13;;
21326;SDS011;10822;51.532;6.770;2023-02-24T09:56:04;15.93;;;2.95;;
21326;SDS011;10822;51.532;6.770;2023-02-24T09:58:35;11.13;;;3.35;;
21326;SDS011;10822;51.532;6.770;2023-02-24T10:01:09;12.85;;;2.85;;
21326;SDS011;10822;51.532;6.770;2023-02-24T10:03:56;9.93;;;2.40;;
21326;SDS011;10822;51.532;6.770;2023-02-24T10:06:42;8.95;;;2.50;;
21326;SDS011;10822;51.532;6.770;2023-02-24T10:11:57;10.07;;;2.50;;
21326;SDS011;10822;51.532;6.770;2023-02-24T10:14:44;9.13;;;2.58;;
21326;SDS011;10822;51.532;6.770;2023-02-24T10:17:20;8.85;;;2.53;;
21326;SDS011;10822;51.532;6.770;2023-02-24T10:19:47;13.23;;;2.92;;
21326;SDS011;10822;51.532;6.770;2023-02-24T10:22:38;9.77;;;2.85;;
21326;SDS011;10822;51.532;6.770;2023-02-24T10:27:50;8.48;;;2.60;;
21326;SDS011;10822;51.532;6.770;2023-02-24T10:30:33;13.85;;;2.65;;
21326;SDS011;10822;51.532;6.770;2023-02-24T10:33:10;5.78;;;2.40;;
21326;SDS011;10822;51.532;6.770;2023-02-24T10:35:38;12.65;;;3.33;;
21326;SDS011;10822;51.532;6.770;2023-02-24T10:38:04;11.30;;;3.17;;
21326;SDS011;10822;51.532;6.770;2023-02-24T10:40:31;14.77;;;3.75;;
21326;SDS011;10822;51.532;6.770;2023-02-24T10:43:13;12.95;;;3.03;;
21326;SDS011;10822;51.532;6.770;2023-02-24T10:45:42;10.98;;;2.22;;
21326;SDS011;10822;51.532;6.770;2023-02-24T10:48:15;9.40;;;2.35;;
21326;SDS011;10822;51.532;6.770;2023-02-24T10:50:48;7.50;;;2.33;;
21326;SDS011;10822;51.532;6.770;2023-02-24T10:53:18;8.10;;;2.92;;
21326;SDS011;10822;51.532;6.770;2023-02-24T10:55:54;11.52;;;2.70;;
21326;SDS011;10822;51.532;6.770;2023-02-24T10:58:39;10.18;;;2.63;;
21326;SDS011;10822;51.532;6.770;2023-02-24T11:01:13;8.07;;;2.67;;
21326;SDS011;10822;51.532;6.770;2023-02-24T11:03:49;8.30;;;2.22;;
21326;SDS011;10822;51.532;6.770;2023-02-24T11:06:25;8.23;;;2.85;;
21326;SDS011;10822;51.532;6.770;2023-02-24T11:09:26;11.93;;;2.72;;
21326;SDS011;10822;51.532;6.770;2023-02-24T11:11:52;9.00;;;2.70;;
21326;SDS011;10822;51.532;6.770;2023-02-24T11:14:54;11.60;;;2.60;;
21326;SDS011;10822;51.532;6.770;2023-02-24T11:17:47;10.32;;;2.75;;
21326;SDS011;10822;51.532;6.770;2023-02-24T11:20:24;12.75;;;3.00;;
21326;SDS011;10822;51.532;6.770;2023-02-24T11:22:52;10.52;;;3.40;;
21326;SDS011;10822;51.532;6.770;2023-02-24T11:27:48;8.43;;;3.38;;
21326;SDS011;10822;51.532;6.770;2023-02-24T11:30:21;13.82;;;3.70;;
21326;SDS011;10822;51.532;6.770;2023-02-24T11:33:14;9.20;;;2.95;;
21326;SDS011;10822;51.532;6.770;2023-02-24T11:40:31;12.70;;;3.55;;
21326;SDS011;10822;51.532;6.770;2023-02-24T11:43:04;10.63;;;3.17;;
21326;SDS011;10822;51.532;6.770;2023-02-24T11:45:53;12.75;;;3.28;;
21326;SDS011;10822;51.532;6.770;2023-02-24T11:53:36;12.80;;;3.30;;
21326;SDS011;10822;51.532;6.770;2023-02-24T12:03:37;12.85;;;3.80;;
21326;SDS011;10822;51.532;6.770;2023-02-24T12:06:08;12.35;;;4.45;;
21326;SDS011;10822;51.532;6.770;2023-02-24T12:08:37;16.60;;;5.28;;
21326;SDS011;10822;51.532;6.770;2023-02-24T12:13:37;11.25;;;4.63;;
21326;SDS011;10822;51.532;6.770;2023-02-24T12:16:12;12.82;;;4.53;;
21326;SDS011;10822;51.532;6.770;2023-02-24T12:18:53;13.60;;;5.30;;
21326;SDS011;10822;51.532;6.770;2023-02-24T12:21:21;14.10;;;4.38;;
21326;SDS011;10822;51.532;6.770;2023-02-24T12:23:49;10.52;;;4.80;;
21326;SDS011;10822;51.532;6.770;2023-02-24T12:29:11;10.75;;;5.03;;
21326;SDS011;10822;51.532;6.770;2023-02-24T12:34:24;13.63;;;5.15;;
21326;SDS011;10822;51.532;6.770;2023-02-24T12:39:32;10.70;;;4.68;;
21326;SDS011;10822;51.532;6.770;2023-02-24T12:44:52;17.73;;;4.75;;
21326;SDS011;10822;51.532;6.770;2023-02-24T12:47:26;12.60;;;4.40;;
21326;SDS011;10822;51.532;6.770;2023-02-24T12:58:05;9.45;;;4.05;;
21326;SDS011;10822;51.532;6.770;2023-02-24T13:08:17;10.40;;;4.22;;
21326;SDS011;10822;51.532;6.770;2023-02-24T13:15:57;13.88;;;4.80;;
21326;SDS011;10822;51.532;6.770;2023-02-24T13:20:59;11.05;;;4.60;;
21326;SDS011;10822;51.532;6.770;2023-02-24T13:23:26;13.73;;;4.63;;
21326;SDS011;10822;51.532;6.770;2023-02-24T13:25:53;12.68;;;4.90;;
21326;SDS011;10822;51.532;6.770;2023-02-24T13:28:27;13.18;;;5.40;;
21326;SDS011;10822;51.532;6.770;2023-02-24T13:30:58;10.48;;;5.53;;
21326;SDS011;10822;51.532;6.770;2023-02-24T13:33:27;15.32;;;6.07;;
21326;SDS011;10822;51.532;6.770;2023-02-24T13:36:08;16.45;;;5.97;;
21326;SDS011;10822;51.532;6.770;2023-02-24T13:38:36;17.95;;;6.85;;
21326;SDS011;10822;51.532;6.770;2023-02-24T13:41:07;11.20;;;6.13;;
21326;SDS011;10822;51.532;6.770;2023-02-24T13:43:33;15.48;;;7.78;;
21326;SDS011;10822;51.532;6.770;2023-02-24T13:45:59;19.15;;;7.55;;
21326;SDS011;10822;51.532;6.770;2023-02-24T13:48:35;16.67;;;7.40;;
21326;SDS011;10822;51.532;6.770;2023-02-24T14:01:44;16.65;;;7.97;;
21326;SDS011;10822;51.532;6.770;2023-02-24T14:06:44;17.65;;;7.88;;
21326;SDS011;10822;51.532;6.770;2023-02-24T14:09:11;15.13;;;7.72;;
21326;SDS011;10822;51.532;6.770;2023-02-24T14:11:39;16.27;;;8.48;;
21326;SDS011;10822;51.532;6.770;2023-02-24T14:14:05;19.98;;;8.00;;
21326;SDS011;10822;51.532;6.770;2023-02-24T14:16:37;15.95;;;8.10;;
21326;SDS011;10822;51.532;6.770;2023-02-24T14:19:03;14.93;;;8.25;;
21326;SDS011;10822;51.532;6.770;2023-02-24T14:21:33;18.05;;;8.00;;
21326;SDS011;10822;51.532;6.770;2023-02-24T14:24:08;15.95;;;7.95;;
21326;SDS011;10822;51.532;6.770;2023-02-24T14:26:40;15.48;;;8.52;;
21326;SDS011;10822;51.532;6.770;2023-02-24T14:29:06;15.77;;;8.32;;
21326;SDS011;10822;51.532;6.770;2023-02-24T14:31:33;13.52;;;7.45;;
21326;SDS011;10822;51.532;6.770;2023-02-24T14:34:00;15.15;;;7.40;;
21326;SDS011;10822;51.532;6.770;2023-02-24T14:36:32;17.08;;;7.45;;
21326;SDS011;10822;51.532;6.770;2023-02-24T14:39:02;15.88;;;7.80;;
21326;SDS011;10822;51.532;6.770;2023-02-24T14:41:28;15.75;;;7.32;;
21326;SDS011;10822;51.532;6.770;2023-02-24T14:43:54;10.45;;;6.82;;
21326;SDS011;10822;51.532;6.770;2023-02-24T14:46:21;15.02;;;6.97;;
21326;SDS011;10822;51.532;6.770;2023-02-24T14:48:51;12.93;;;6.70;;
21326;SDS011;10822;51.532;6.770;2023-02-24T14:51:27;13.18;;;6.53;;
21326;SDS011;10822;51.532;6.770;2023-02-24T14:53:57;13.90;;;7.38;;
21326;SDS011;10822;51.532;6.770;2023-02-24T14:56:27;11.00;;;6.47;;
21326;SDS011;10822;51.532;6.770;2023-02-24T14:58:57;9.55;;;6.80;;
21326;SDS011;10822;51.532;6.770;2023-02-24T15:03:50;16.25;;;7.63;;
21326;SDS011;10822;51.532;6.770;2023-02-24T15:06:29;15.50;;;7.85;;
21326;SDS011;10822;51.532;6.770;2023-02-24T15:09:00;11.55;;;6.43;;
21326;SDS011;10822;51.532;6.770;2023-02-24T15:11:28;11.57;;;6.73;;
21326;SDS011;10822;51.532;6.770;2023-02-24T15:14:02;12.50;;;7.07;;
21326;SDS011;10822;51.532;6.770;2023-02-24T15:16:36;9.73;;;5.80;;
21326;SDS011;10822;51.532;6.770;2023-02-24T15:19:03;12.15;;;7.03;;
21326;SDS011;10822;51.532;6.770;2023-02-24T15:21:30;14.80;;;7.25;;
21326;SDS011;10822;51.532;6.770;2023-02-24T15:24:01;13.80;;;6.82;;
21326;SDS011;10822;51.532;6.770;2023-02-24T15:26:31;14.85;;;7.75;;
21326;SDS011;10822;51.532;6.770;2023-02-24T15:28:58;14.15;;;6.97;;
21326;SDS011;10822;51.532;6.770;2023-02-24T15:31:24;15.30;;;7.72;;
21326;SDS011;10822;51.532;6.770;2023-02-24T15:33:56;16.88;;;7.57;;
21326;SDS011;10822;51.532;6.770;2023-02-24T15:36:24;14.10;;;6.30;;
21326;SDS011;10822;51.532;6.770;2023-02-24T15:38:51;14.88;;;6.25;;
21326;SDS011;10822;51.532;6.770;2023-02-24T15:41:18;15.60;;;6.45;;
21326;SDS011;10822;51.532;6.770;2023-02-24T15:48:44;16.17;;;6.68;;
21326;SDS011;10822;51.532;6.770;2023-02-24T15:51:21;12.73;;;6.28;;
21326;SDS011;10822;51.532;6.770;2023-02-24T15:53:49;12.27;;;6.53;;
21326;SDS011;10822;51.532;6.770;2023-02-24T15:56:15;14.80;;;7.65;;
21326;SDS011;10822;51.532;6.770;2023-02-24T15:58:41;10.65;;;6.38;;
21326;SDS011;10822;51.532;6.770;2023-02-24T16:01:08;13.15;;;5.90;;
21326;SDS011;10822;51.532;6.770;2023-02-24T16:03:35;11.82;;;5.65;;
21326;SDS011;10822;51.532;6.770;2023-02-24T16:06:01;11.90;;;5.88;;
21326;SDS011;10822;51.532;6.770;2023-02-24T16:08:28;11.43;;;6.50;;
21326;SDS011;10822;51.532;6.770;2023-02-24T16:10:54;15.25;;;6.63;;
21326;SDS011;10822;51.532;6.770;2023-02-24T16:13:22;14.85;;;6.95;;
21326;SDS011;10822;51.532;6.770;2023-02-24T16:15:48;12.82;;;6.28;;
21326;SDS011;10822;51.532;6.770;2023-02-24T16:18:18;10.57;;;6.13;;
21326;SDS011;10822;51.532;6.770;2023-02-24T16:20:46;13.90;;;6.10;;
21326;SDS011;10822;51.532;6.770;2023-02-24T16:23:19;10.93;;;5.85;;
21326;SDS011;10822;51.532;6.770;2023-02-24T16:25:46;11.48;;;5.57;;
21326;SDS011;10822;51.532;6.770;2023-02-24T16:28:13;11.75;;;5.45;;
21326;SDS011;10822;51.532;6.770;2023-02-24T16:30:40;11.65;;;4.97;;
21326;SDS011;10822;51.532;6.770;2023-02-24T16:33:08;11.85;;;4.82;;
21326;SDS011;10822;51.532;6.770;2023-02-24T16:35:34;12.40;;;3.85;;
21326;SDS011;10822;51.532;6.770;2023-02-24T16:38:02;15.10;;;4.35;;
21326;SDS011;10822;51.532;6.770;2023-02-24T16:40:30;13.70;;;4.47;;
21326;SDS011;10822;51.532;6.770;2023-02-24T16:43:01;17.50;;;5.88;;
21326;SDS011;10822;51.532;6.770;2023-02-24T16:45:28;13.35;;;6.65;;
21326;SDS011;10822;51.532;6.770;2023-02-24T16:47:54;18.77;;;7.90;;
21326;SDS011;10822;51.532;6.770;2023-02-24T16:50:22;15.18;;;7.35;;
21326;SDS011;10822;51.532;6.770;2023-02-24T16:52:48;18.48;;;6.95;;
21326;SDS011;10822;51.532;6.770;2023-02-24T16:55:14;15.73;;;5.65;;
21326;SDS011;10822;51.532;6.770;2023-02-24T16:57:41;23.25;;;8.95;;
21326;SDS011;10822;51.532;6.770;2023-02-24T17:00:07;19.58;;;7.10;;
21326;SDS011;10822;51.532;6.770;2023-02-24T17:02:34;21.27;;;8.23;;
21326;SDS011;10822;51.532;6.770;2023-02-24T17:05:00;33.85;;;13.50;;
21326;SDS011;10822;51.532;6.770;2023-02-24T17:07:26;31.85;;;12.23;;
21326;SDS011;10822;51.532;6.770;2023-02-24T17:09:52;26.00;;;9.00;;
21326;SDS011;10822;51.532;6.770;2023-02-24T17:12:18;31.58;;;10.55;;